»·PEaware :: N343B L52-L88

N343B :: L52-L88

FLIGHT INFORMATION

Flight Status: Arrived
Operator: Privately registered:
United States
More flights under this callsign
Pilot: Corey G. (17774)
Aircraft: CESSNA 172 SKYHAWK
(C172)
More flights by this aircraft type
Origin: L52 Oceano Co
United States
Destination: L88 New Cuyama
United States
More flights between these airports :: More routes between these airports
Route: VFR
File this flight plan on PilotEdge
Remarks:
Altitude:
(Current/Filed)
7,500ft
Speed:
(Current/Filed)
120kts
Departed: 03-Jan-18 12:05 PM
Arrived: 03-Jan-18 12:40 PM
Distance/Time
Traveled:
47nm/0:35
Distance/Time
To Go:
Arrived

Flight Plot

Page will automatically refresh every two minutes.


Map Options




Map Legend


Flown Route
Filed Route
Departure Airport
Arrival Airport
Navaid (VOR, NDB)
Fix

Horizontal Profiles

Position Reports

Time Latitude Longitude Heading Altitude Ground
Speed
03-Jan-18 11:29 35.103552 -120.624284 214 15ft 0kts
03-Jan-18 11:30 35.103552 -120.624284 214 15ft 0kts
03-Jan-18 11:31 35.103552 -120.624284 214 15ft 0kts
03-Jan-18 11:38 35.103552 -120.624284 214 15ft 0kts
03-Jan-18 11:39 35.103552 -120.624284 214 15ft 0kts
03-Jan-18 11:40 35.103552 -120.624284 214 15ft 0kts
03-Jan-18 11:41 35.103552 -120.624284 214 15ft 0kts
03-Jan-18 11:42 35.103552 -120.624284 214 15ft 0kts
03-Jan-18 11:43 35.103552 -120.624284 214 15ft 0kts
03-Jan-18 11:44 35.103552 -120.624284 214 15ft 0kts
03-Jan-18 11:45 35.103552 -120.624284 214 15ft 0kts
03-Jan-18 11:46 35.103552 -120.624284 214 15ft 0kts
03-Jan-18 11:47 35.103552 -120.624284 214 15ft 0kts
03-Jan-18 11:48 35.103552 -120.624284 214 15ft 0kts
03-Jan-18 11:49 35.103552 -120.624284 214 15ft 0kts
03-Jan-18 11:50 35.103552 -120.624284 214 15ft 0kts
03-Jan-18 11:51 35.103552 -120.624284 214 15ft 0kts
03-Jan-18 11:52 35.103552 -120.624284 214 15ft 0kts
03-Jan-18 11:53 35.103552 -120.624284 214 15ft 0kts
03-Jan-18 11:56 35.103552 -120.624284 214 15ft 0kts
03-Jan-18 11:57 35.103552 -120.624284 214 15ft 0kts
03-Jan-18 11:58 35.103552 -120.624284 214 15ft 0kts
03-Jan-18 11:59 35.103552 -120.624284 214 15ft 0kts
03-Jan-18 12:04 35.103552 -120.624284 214 15ft 0kts
03-Jan-18 12:05 35.103552 -120.624284 214 15ft 0kts
03-Jan-18 12:06 35.103552 -120.624284 214 15ft 0kts
03-Jan-18 12:07 35.103552 -120.624284 214 15ft 0kts
03-Jan-18 12:08 35.103503 -120.624309 184 15ft 3kts
03-Jan-18 12:09 35.101915 -120.623922 123 14ft 12kts
03-Jan-18 12:10 35.100036 -120.620412 122 17ft 12kts
03-Jan-18 12:11 35.101282 -120.621824 302 17ft 60kts
03-Jan-18 12:12 35.113095 -120.644149 302 736ft 83kts
03-Jan-18 12:13 35.130167 -120.649104 73 1555ft 91kts
03-Jan-18 12:14 35.123833 -120.618710 113 2330ft 92kts
03-Jan-18 12:15 35.110943 -120.590468 117 3046ft 96kts
03-Jan-18 12:16 35.098787 -120.561533 109 3720ft 96kts
03-Jan-18 12:17 35.086872 -120.532768 104 4359ft 95kts
03-Jan-18 12:18 35.081799 -120.501025 97 4930ft 99kts
03-Jan-18 12:19 35.076309 -120.469369 99 5533ft 98kts
03-Jan-18 12:20 35.070857 -120.437735 99 6116ft 97kts
03-Jan-18 12:21 35.064131 -120.406899 104 6657ft 96kts
03-Jan-18 12:22 35.058426 -120.375844 95 7168ft 95kts
03-Jan-18 12:23 35.055265 -120.344102 94 7481ft 105kts
03-Jan-18 12:24 35.049547 -120.307915 100 7482ft 115kts
03-Jan-18 12:25 35.043303 -120.271865 100 7491ft 119kts
03-Jan-18 12:26 35.036830 -120.235109 100 7491ft 119kts
03-Jan-18 12:27 35.030494 -120.199077 100 7489ft 105kts
03-Jan-18 12:28 35.024658 -120.165517 100 7453ft 105kts
03-Jan-18 12:29 35.018671 -120.131236 100 7267ft 110kts
03-Jan-18 12:30 35.012145 -120.093911 100 7000ft 114kts
03-Jan-18 12:31 35.005809 -120.057557 100 6984ft 110kts
03-Jan-18 12:32 34.999373 -120.020753 100 6982ft 112kts
03-Jan-18 12:33 34.992845 -119.983679 100 6981ft 112kts
03-Jan-18 12:34 34.986341 -119.946614 100 6981ft 112kts
03-Jan-18 12:35 34.980972 -119.916155 100 6981ft 112kts
03-Jan-18 12:36 34.974433 -119.879170 100 6981ft 112kts
03-Jan-18 12:37 34.967892 -119.842093 100 6971ft 113kts
03-Jan-18 12:38 34.961749 -119.808056 100 6461ft 94kts
03-Jan-18 12:39 34.956054 -119.775864 99 5965ft 100kts
03-Jan-18 12:40 34.949887 -119.741441 100 5144ft 102kts
03-Jan-18 12:41 34.943726 -119.707010 100 3855ft 113kts
03-Jan-18 12:42 34.943441 -119.676708 25 3287ft 77kts
03-Jan-18 12:43 34.930654 -119.689739 129 2823ft 74kts
03-Jan-18 12:44 34.923211 -119.664322 74 3154ft 87kts
03-Jan-18 12:45 34.935651 -119.674884 293 2404ft 72kts
03-Jan-18 12:46 34.941912 -119.690405 299 2158ft 18kts
03-Jan-18 12:47 34.942578 -119.691147 329 2155ft 0kts
03-Jan-18 12:48 34.942578 -119.691147 329 2155ft 0kts
03-Jan-18 12:49 34.942578 -119.691147 329 2155ft 0kts
03-Jan-18 12:50 34.942578 -119.691147 329 2155ft 0kts
03-Jan-18 12:51 34.942578 -119.691147 329 2155ft 0kts
03-Jan-18 12:52 34.942578 -119.691147 329 2155ft 0kts
03-Jan-18 12:53 34.942578 -119.691147 329 2155ft 0kts
03-Jan-18 12:54 34.942578 -119.691147 329 2155ft 0kts
03-Jan-18 12:55 34.942578 -119.691147 329 2155ft 0kts
03-Jan-18 12:56 34.942578 -119.691147 329 2155ft 0kts
03-Jan-18 12:57 34.942578 -119.691147 329 2155ft 0kts
03-Jan-18 12:58 34.942578 -119.691147 329 2155ft 0kts
03-Jan-18 12:59 34.942578 -119.691147 329 2155ft 0kts
03-Jan-18 13:00 34.942578 -119.691147 329 2155ft 0kts

Navigation Log

Ident Type
Flight plan parsing failed, navigation log unavailable